Time;durP1;ratioP1;P1;durP2;ratioP2;P2;SDS_P1;SDS_P2;PMS_P1;PMS_P2;Temp;Humidity;BMP_temperature;BMP_pressure;BME280_temperature;BME280_humidity;BME280_pressure;Samples;Min_cycle;Max_cycle;Signal;HPM_P1;HPM_P2
2023/08/25 00:02:15;;;;;;;1.45;0.85;;;19.00;99.90;;;;;;4913101;28;20048;-70
2023/08/25 00:04:42;;;;;;;2.30;1.55;;;19.00;99.90;;;;;;4961646;28;20042;-69
2023/08/25 00:07:08;;;;;;;0.03;0.03;;;19.00;99.90;;;;;;4934649;28;20037;-69
2023/08/25 00:09:33;;;;;;;0.40;0.40;;;19.00;99.90;;;;;;4935172;28;20540;-69
2023/08/25 00:11:59;;;;;;;0.28;0.28;;;19.00;99.90;;;;;;4959972;28;20061;-69
2023/08/25 00:14:25;;;;;;;0.43;0.43;;;19.00;99.90;;;;;;4959018;28;20079;-69
2023/08/25 00:16:51;;;;;;;0.20;0.20;;;19.00;99.90;;;;;;4939056;28;20456;-69
2023/08/25 00:19:17;;;;;;;0.20;0.20;;;18.90;99.90;;;;;;4986129;28;20108;-69
2023/08/25 00:21:43;;;;;;;0.60;0.60;;;18.90;99.90;;;;;;4952479;28;20047;-69
2023/08/25 00:24:09;;;;;;;0.65;0.63;;;18.90;99.90;;;;;;4932218;28;20500;-69
2023/08/25 00:26:36;;;;;;;0.20;0.20;;;18.90;99.90;;;;;;4960740;28;20054;-69
2023/08/25 00:29:03;;;;;;;0.32;0.32;;;18.90;99.90;;;;;;4967330;28;20065;-69
2023/08/25 00:31:28;;;;;;;0.75;0.75;;;18.90;99.90;;;;;;4953556;28;20964;-69
2023/08/25 00:33:54;;;;;;;0.15;0.15;;;18.90;99.90;;;;;;4906301;28;20050;-70
2023/08/25 00:36:20;;;;;;;0.35;0.35;;;18.90;99.90;;;;;;4945467;28;20048;-69
2023/08/25 00:38:45;;;;;;;1.20;0.82;;;18.90;99.90;;;;;;4958112;28;20116;-69
2023/08/25 00:41:11;;;;;;;0.43;0.43;;;18.90;99.90;;;;;;4935768;28;20507;-70
2023/08/25 00:43:39;;;;;;;0.30;0.30;;;18.90;99.90;;;;;;4975774;28;20053;-70
2023/08/25 00:46:04;;;;;;;0.13;0.13;;;18.90;99.90;;;;;;4921373;28;20496;-69
2023/08/25 00:48:30;;;;;;;0.17;0.17;;;18.90;99.90;;;;;;4956479;28;20056;-69
2023/08/25 00:50:56;;;;;;;0.35;0.35;;;18.90;99.90;;;;;;4959650;28;20404;-69
2023/08/25 00:53:23;;;;;;;4.07;1.30;;;18.90;99.90;;;;;;4949590;28;20055;-69
2023/08/25 00:55:50;;;;;;;0.30;0.30;;;18.90;99.90;;;;;;4905695;28;20531;-69
2023/08/25 00:58:16;;;;;;;0.20;0.20;;;18.90;99.90;;;;;;4956629;28;20404;-69
2023/08/25 01:00:44;;;;;;;0.80;0.77;;;18.90;99.90;;;;;;4957902;28;20049;-69
2023/08/25 01:03:10;;;;;;;1.42;1.35;;;18.90;99.90;;;;;;4961392;28;20068;-69
2023/08/25 01:05:36;;;;;;;0.30;0.30;;;19.00;99.90;;;;;;4977454;28;20553;-69
2023/08/25 01:08:05;;;;;;;0.22;0.22;;;19.00;99.90;;;;;;4946954;28;20129;-69
2023/08/25 01:10:53;;;;;;;2.25;0.50;;;19.00;99.90;;;;;;4953460;28;20055;-69
2023/08/25 01:13:26;;;;;;;2.38;0.43;;;19.00;99.90;;;;;;4944580;28;20048;-69
2023/08/25 01:15:54;;;;;;;0.00;0.00;;;19.00;99.90;;;;;;4965903;28;20072;-69
2023/08/25 01:18:30;;;;;;;5.38;1.45;;;19.00;99.90;;;;;;4967526;28;20038;-70
2023/08/25 01:20:58;;;;;;;0.52;0.52;;;19.00;99.90;;;;;;4971270;28;20065;-70
2023/08/25 01:23:46;;;;;;;1.65;1.35;;;19.00;99.90;;;;;;4939054;28;20051;-69
2023/08/25 01:26:12;;;;;;;0.35;0.35;;;19.00;99.90;;;;;;4951158;28;20046;-69
2023/08/25 01:28:41;;;;;;;0.10;0.10;;;19.00;99.90;;;;;;4962051;28;20055;-69
2023/08/25 01:31:07;;;;;;;0.68;0.60;;;19.00;99.90;;;;;;4942544;28;20135;-69
2023/08/25 01:33:33;;;;;;;0.47;0.40;;;19.00;99.90;;;;;;4922535;28;20493;-70
2023/08/25 01:36:08;;;;;;;0.10;0.10;;;19.00;99.90;;;;;;4902456;28;20515;-69
2023/08/25 01:38:38;;;;;;;0.17;0.17;;;19.00;99.90;;;;;;4912049;28;20139;-70
2023/08/25 01:41:13;;;;;;;0.00;0.00;;;19.10;99.90;;;;;;4923223;28;20501;-70
2023/08/25 01:43:46;;;;;;;0.25;0.25;;;19.00;99.90;;;;;;4939108;28;20103;-69
2023/08/25 01:46:15;;;;;;;0.10;0.10;;;19.00;99.90;;;;;;4958607;28;20396;-69
2023/08/25 01:48:43;;;;;;;0.40;0.40;;;19.00;99.90;;;;;;4970109;28;20398;-69
2023/08/25 01:51:10;;;;;;;0.35;0.35;;;19.00;99.90;;;;;;4946161;28;20401;-69
2023/08/25 01:53:36;;;;;;;0.00;0.00;;;19.10;99.90;;;;;;4951821;28;20400;-69
2023/08/25 01:56:02;;;;;;;1.52;1.42;;;19.00;99.90;;;;;;4955607;28;20048;-69
2023/08/25 01:58:28;;;;;;;0.32;0.32;;;19.00;99.90;;;;;;4911293;28;20050;-69
2023/08/25 02:00:53;;;;;;;0.85;0.85;;;19.00;99.90;;;;;;4954623;28;20119;-69
2023/08/25 02:03:19;;;;;;;0.10;0.10;;;19.10;99.90;;;;;;4930441;28;20468;-69
2023/08/25 02:05:45;;;;;;;0.28;0.28;;;19.10;99.90;;;;;;4950912;28;20056;-69
2023/08/25 02:08:10;;;;;;;0.40;0.40;;;19.10;99.90;;;;;;4951197;28;20469;-70
2023/08/25 02:10:36;;;;;;;0.10;0.10;;;19.10;99.90;;;;;;4952375;28;20036;-69
2023/08/25 02:13:02;;;;;;;0.40;0.40;;;19.10;99.90;;;;;;4966954;28;20033;-69
2023/08/25 02:15:27;;;;;;;0.50;0.40;;;19.10;99.90;;;;;;4960555;28;20473;-69
2023/08/25 02:17:53;;;;;;;0.22;0.22;;;19.10;99.90;;;;;;4939109;28;20115;-69
2023/08/25 02:20:19;;;;;;;1.67;1.27;;;19.10;99.90;;;;;;4951739;28;20384;-69
2023/08/25 02:22:44;;;;;;;0.15;0.15;;;19.10;99.90;;;;;;4968461;28;20088;-69
2023/08/25 02:25:10;;;;;;;0.38;0.38;;;19.10;99.90;;;;;;4967163;28;20052;-70
2023/08/25 02:27:35;;;;;;;1.13;0.98;;;19.10;99.90;;;;;;4903640;28;20052;-69
2023/08/25 02:30:02;;;;;;;0.95;0.35;;;19.10;99.90;;;;;;4952205;28;20066;-69
2023/08/25 02:32:27;;;;;;;0.57;0.32;;;19.20;99.90;;;;;;4947527;28;20126;-70
2023/08/25 02:34:53;;;;;;;1.25;1.10;;;19.20;99.90;;;;;;4959224;28;20096;-69
2023/08/25 02:37:18;;;;;;;1.13;1.00;;;19.10;99.90;;;;;;4963053;28;20052;-69
2023/08/25 02:39:44;;;;;;;0.20;0.20;;;19.20;99.90;;;;;;4925300;28;20048;-69
2023/08/25 02:42:10;;;;;;;0.10;0.10;;;19.20;99.90;;;;;;4914643;28;20048;-69
2023/08/25 02:44:35;;;;;;;1.30;1.20;;;19.20;99.90;;;;;;4947514;28;20183;-70
2023/08/25 02:47:01;;;;;;;1.42;0.77;;;19.10;99.90;;;;;;4920904;28;20457;-69
2023/08/25 02:49:27;;;;;;;0.35;0.35;;;19.20;99.90;;;;;;4914140;28;20048;-69
2023/08/25 02:51:54;;;;;;;1.38;0.85;;;19.20;99.90;;;;;;4979936;28;20057;-69
2023/08/25 02:54:20;;;;;;;0.22;0.22;;;19.20;99.90;;;;;;4962891;28;20037;-69
2023/08/25 02:56:45;;;;;;;0.40;0.40;;;19.20;99.90;;;;;;4936177;28;20045;-69
2023/08/25 02:59:11;;;;;;;1.13;1.02;;;19.20;99.90;;;;;;4921446;28;20062;-69
2023/08/25 03:01:36;;;;;;;3.17;2.10;;;19.20;99.90;;;;;;4955640;28;20484;-70
2023/08/25 03:04:02;;;;;;;2.83;0.85;;;19.20;99.90;;;;;;4916249;28;20068;-69
2023/08/25 03:06:28;;;;;;;0.95;0.90;;;19.20;99.90;;;;;;4960457;28;20046;-70
2023/08/25 03:08:53;;;;;;;0.25;0.25;;;19.10;99.90;;;;;;4970635;28;20050;-69
2023/08/25 03:11:19;;;;;;;0.57;0.57;;;19.10;99.90;;;;;;4959798;28;20041;-70
2023/08/25 03:13:44;;;;;;;0.57;0.47;;;19.20;99.90;;;;;;4950500;28;20040;-70
2023/08/25 03:16:10;;;;;;;1.48;1.38;;;19.10;99.90;;;;;;4941184;28;20044;-69
2023/08/25 03:18:37;;;;;;;0.30;0.30;;;19.10;99.90;;;;;;4914844;28;20048;-69
2023/08/25 03:21:03;;;;;;;2.60;1.88;;;19.10;99.90;;;;;;4912726;28;20052;-69
2023/08/25 03:23:29;;;;;;;3.72;1.65;;;19.10;99.90;;;;;;4929052;28;20071;-70
2023/08/25 03:25:54;;;;;;;0.35;0.35;;;19.20;99.90;;;;;;4960269;28;20084;-70
2023/08/25 03:28:20;;;;;;;1.40;0.65;;;19.10;99.90;;;;;;4927927;28;20120;-70
2023/08/25 03:30:50;;;;;;;2.63;1.02;;;19.10;99.90;;;;;;4955165;28;20539;-69
2023/08/25 03:33:15;;;;;;;3.03;2.05;;;19.10;99.90;;;;;;4919101;28;20083;-70
2023/08/25 03:35:41;;;;;;;1.52;1.42;;;19.10;99.90;;;;;;4973648;28;20042;-70
2023/08/25 03:38:07;;;;;;;0.30;0.30;;;19.10;99.90;;;;;;4940496;28;20057;-69
2023/08/25 03:40:32;;;;;;;0.68;0.68;;;19.10;99.90;;;;;;4930367;28;20127;-69
2023/08/25 03:42:58;;;;;;;3.40;1.38;;;19.10;99.90;;;;;;4947245;28;20086;-69
2023/08/25 03:45:23;;;;;;;1.05;1.05;;;19.10;99.90;;;;;;4950904;28;20133;-70
2023/08/25 03:47:49;;;;;;;1.00;0.90;;;19.10;99.90;;;;;;4932833;28;20044;-69
2023/08/25 03:50:15;;;;;;;0.40;0.40;;;19.10;99.90;;;;;;4926239;28;20048;-69
2023/08/25 03:52:40;;;;;;;0.65;0.65;;;19.10;99.90;;;;;;4929834;28;20067;-70
2023/08/25 03:55:06;;;;;;;1.02;1.02;;;19.10;99.90;;;;;;4954311;28;20055;-69
2023/08/25 03:57:32;;;;;;;1.88;1.10;;;19.10;99.90;;;;;;4912895;28;20455;-70
2023/08/25 03:59:58;;;;;;;1.85;1.45;;;19.10;99.90;;;;;;4932274;28;20055;-69
2023/08/25 04:02:23;;;;;;;14.35;1.63;;;19.10;99.90;;;;;;4939992;28;20053;-69
2023/08/25 04:04:49;;;;;;;1.80;1.25;;;19.10;99.90;;;;;;4923785;28;20083;-69
2023/08/25 04:07:14;;;;;;;2.78;1.30;;;19.10;99.90;;;;;;4921241;28;20040;-70
2023/08/25 04:09:41;;;;;;;1.40;1.30;;;19.10;99.90;;;;;;4958672;28;20084;-69
2023/08/25 04:12:07;;;;;;;0.60;0.60;;;19.10;99.90;;;;;;4967191;28;20050;-69
2023/08/25 04:14:33;;;;;;;0.43;0.43;;;19.10;99.90;;;;;;4929510;28;20476;-69
2023/08/25 04:16:59;;;;;;;1.40;1.27;;;19.10;99.90;;;;;;4942957;28;20059;-69
2023/08/25 04:19:25;;;;;;;0.47;0.47;;;19.10;99.90;;;;;;4948904;28;20060;-69
2023/08/25 04:21:50;;;;;;;1.33;1.23;;;19.10;99.90;;;;;;4938245;28;20149;-69
2023/08/25 04:24:17;;;;;;;0.63;0.63;;;19.10;99.90;;;;;;4965164;28;20421;-69
2023/08/25 04:26:42;;;;;;;4.88;1.40;;;19.10;99.90;;;;;;4958806;28;20135;-69
2023/08/25 04:29:09;;;;;;;0.50;0.50;;;19.00;99.90;;;;;;4972546;28;20054;-69
2023/08/25 04:31:35;;;;;;;1.13;1.05;;;19.00;99.90;;;;;;4942273;28;20515;-69
2023/08/25 04:34:01;;;;;;;0.88;0.85;;;19.00;99.90;;;;;;4950945;28;20391;-70
2023/08/25 04:36:27;;;;;;;0.35;0.35;;;19.00;99.90;;;;;;4951254;28;20046;-70
2023/08/25 04:38:52;;;;;;;3.90;1.05;;;19.00;99.90;;;;;;4956656;28;20050;-70
2023/08/25 04:41:19;;;;;;;1.05;0.82;;;19.00;99.90;;;;;;4917349;28;20044;-69
2023/08/25 04:43:44;;;;;;;2.30;1.02;;;19.00;99.90;;;;;;4979780;28;20202;-70
2023/08/25 04:46:11;;;;;;;0.90;0.40;;;19.00;99.90;;;;;;4960180;28;20053;-69
2023/08/25 04:48:36;;;;;;;2.00;1.35;;;19.00;99.90;;;;;;4970937;28;20038;-69
2023/08/25 04:51:02;;;;;;;1.98;0.90;;;19.00;99.90;;;;;;4930238;28;20495;-69
2023/08/25 04:53:28;;;;;;;0.45;0.45;;;19.00;99.90;;;;;;4920314;28;20152;-69
2023/08/25 04:55:53;;;;;;;0.13;0.13;;;19.00;99.90;;;;;;4929710;28;20052;-69
2023/08/25 04:58:19;;;;;;;0.68;0.68;;;19.00;99.90;;;;;;4959931;28;20081;-69
2023/08/25 05:00:50;;;;;;;0.20;0.20;;;18.90;99.90;;;;;;4952436;28;20048;-69
2023/08/25 05:03:16;;;;;;;0.32;0.32;;;19.00;99.90;;;;;;4926292;28;20195;-69
2023/08/25 05:05:41;;;;;;;3.53;0.65;;;18.90;99.90;;;;;;4973967;28;20485;-69
2023/08/25 05:08:07;;;;;;;0.40;0.40;;;18.90;99.90;;;;;;4939808;28;20373;-69
2023/08/25 05:10:33;;;;;;;1.08;0.80;;;18.90;99.90;;;;;;4936792;28;20096;-69
2023/08/25 05:12:59;;;;;;;0.50;0.50;;;18.90;99.90;;;;;;4963957;28;20100;-69
2023/08/25 05:15:25;;;;;;;0.20;0.20;;;18.90;99.90;;;;;;4957783;28;20434;-70
2023/08/25 05:17:50;;;;;;;0.30;0.30;;;18.90;99.90;;;;;;4922447;28;20439;-69
2023/08/25 05:20:19;;;;;;;1.63;0.93;;;18.90;99.90;;;;;;4937368;28;20436;-69
2023/08/25 05:22:44;;;;;;;3.72;1.67;;;18.90;99.90;;;;;;4969201;28;20193;-69
2023/08/25 05:25:12;;;;;;;0.20;0.20;;;18.90;99.90;;;;;;4939754;28;20561;-69
2023/08/25 05:27:37;;;;;;;0.55;0.40;;;18.90;99.90;;;;;;4956436;28;20079;-69
2023/08/25 05:30:04;;;;;;;0.22;0.17;;;18.90;99.90;;;;;;4960696;28;20067;-69
2023/08/25 05:32:29;;;;;;;0.50;0.47;;;18.90;99.90;;;;;;4928176;28;20064;-69
2023/08/25 05:34:55;;;;;;;0.47;0.38;;;18.90;99.90;;;;;;4953424;28;20056;-69
2023/08/25 05:37:20;;;;;;;0.00;0.00;;;18.90;99.90;;;;;;4938884;28;20489;-69
2023/08/25 05:39:46;;;;;;;0.30;0.30;;;18.90;99.90;;;;;;4934975;28;20132;-68
2023/08/25 05:42:12;;;;;;;0.30;0.30;;;18.90;99.90;;;;;;4931086;28;20042;-69
2023/08/25 05:44:37;;;;;;;0.30;0.30;;;18.90;99.90;;;;;;4963172;28;20380;-69
2023/08/25 05:47:03;;;;;;;0.15;0.15;;;18.80;99.90;;;;;;4945494;28;20123;-69
2023/08/25 05:49:29;;;;;;;0.00;0.00;;;18.90;99.90;;;;;;4959825;28;20036;-69
2023/08/25 05:51:54;;;;;;;0.25;0.25;;;18.90;99.90;;;;;;4978685;28;20132;-68
2023/08/25 05:54:20;;;;;;;0.25;0.25;;;18.90;99.90;;;;;;4917824;28;20403;-69
2023/08/25 05:56:46;;;;;;;0.28;0.28;;;18.90;99.90;;;;;;4959140;28;20390;-68
2023/08/25 05:59:11;;;;;;;0.88;0.47;;;18.90;99.90;;;;;;4942903;28;20399;-69
2023/08/25 06:01:37;;;;;;;1.35;0.80;;;18.90;99.90;;;;;;4948722;28;20154;-68
2023/08/25 06:04:03;;;;;;;0.13;0.13;;;18.90;99.90;;;;;;4921376;28;20064;-68
2023/08/25 06:06:30;;;;;;;0.95;0.95;;;18.90;99.90;;;;;;4945583;28;20404;-69
2023/08/25 06:08:56;;;;;;;0.20;0.20;;;18.90;99.90;;;;;;4921250;28;20047;-68
2023/08/25 06:11:22;;;;;;;0.25;0.25;;;18.90;99.90;;;;;;4911734;28;20056;-68
2023/08/25 06:13:48;;;;;;;6.25;1.77;;;18.90;99.90;;;;;;4912637;28;20055;-68
2023/08/25 06:16:14;;;;;;;0.00;0.00;;;18.90;99.90;;;;;;4980972;28;20401;-67
2023/08/25 06:18:41;;;;;;;0.35;0.35;;;18.90;99.90;;;;;;4965065;28;20371;-68
2023/08/25 06:21:07;;;;;;;0.00;0.00;;;19.00;99.90;;;;;;4932123;28;20396;-69
2023/08/25 06:23:33;;;;;;;7.15;0.55;;;19.00;99.90;;;;;;4921683;28;20633;-68
2023/08/25 06:25:59;;;;;;;0.20;0.20;;;19.00;99.90;;;;;;4929076;28;20052;-69
2023/08/25 06:28:25;;;;;;;0.00;0.00;;;19.00;99.90;;;;;;4935834;28;20570;-69
2023/08/25 06:30:50;;;;;;;1.20;1.10;;;19.10;99.90;;;;;;4967403;28;20073;-68
2023/08/25 06:33:16;;;;;;;0.35;0.35;;;19.00;99.90;;;;;;4962836;28;20118;-69
2023/08/25 06:35:42;;;;;;;0.10;0.10;;;19.00;99.90;;;;;;4928777;28;20079;-69
2023/08/25 06:38:08;;;;;;;0.00;0.00;;;19.00;99.90;;;;;;4977438;28;20038;-69
2023/08/25 06:40:34;;;;;;;0.03;0.03;;;19.00;99.90;;;;;;4923865;28;20048;-69
2023/08/25 06:43:03;;;;;;;0.00;0.00;;;19.00;99.90;;;;;;4952629;28;20044;-69
2023/08/25 06:45:30;;;;;;;0.00;0.00;;;19.00;99.90;;;;;;4968516;28;20042;-69
2023/08/25 06:47:57;;;;;;;0.20;0.20;;;19.10;99.90;;;;;;4948059;28;20095;-69
2023/08/25 06:50:23;;;;;;;0.00;0.00;;;19.20;99.90;;;;;;4943134;28;20044;-69
2023/08/25 06:52:49;;;;;;;0.00;0.00;;;19.10;99.90;;;;;;4945908;28;20440;-69
2023/08/25 06:55:19;;;;;;;1.65;1.02;;;19.20;99.90;;;;;;4950438;28;20053;-69
2023/08/25 06:57:47;;;;;;;0.20;0.20;;;19.20;99.90;;;;;;4974106;28;20073;-69
2023/08/25 07:00:14;;;;;;;0.25;0.25;;;19.10;99.90;;;;;;4940389;28;20052;-69
2023/08/25 07:02:41;;;;;;;0.00;0.00;;;19.20;99.90;;;;;;4960706;28;20095;-69
2023/08/25 07:05:07;;;;;;;0.15;0.15;;;19.20;99.90;;;;;;4964704;28;20059;-69
2023/08/25 07:07:35;;;;;;;0.80;0.80;;;19.20;99.90;;;;;;4959430;28;20828;-69
2023/08/25 07:10:01;;;;;;;0.40;0.38;;;19.30;99.90;;;;;;4969602;28;20042;-69
2023/08/25 07:12:26;;;;;;;0.40;0.40;;;19.30;99.90;;;;;;4951987;28;20047;-69
2023/08/25 07:14:53;;;;;;;0.10;0.10;;;19.30;99.90;;;;;;4939267;28;20038;-69
2023/08/25 07:17:19;;;;;;;0.20;0.20;;;19.30;99.90;;;;;;4967660;28;20052;-69
2023/08/25 07:19:45;;;;;;;0.00;0.00;;;19.40;99.90;;;;;;4967868;28;20413;-69
2023/08/25 07:22:10;;;;;;;0.40;0.40;;;19.40;99.90;;;;;;4942612;28;20071;-69
2023/08/25 07:24:36;;;;;;;0.68;0.50;;;19.40;99.90;;;;;;4978624;28;20073;-69
2023/08/25 07:27:02;;;;;;;1.95;1.23;;;19.50;99.90;;;;;;4972159;28;20493;-69
2023/08/25 07:29:27;;;;;;;0.17;0.17;;;19.50;99.90;;;;;;4967627;28;20061;-69
2023/08/25 07:31:53;;;;;;;0.03;0.03;;;19.50;99.90;;;;;;4937050;28;20081;-69
2023/08/25 07:34:19;;;;;;;0.08;0.08;;;19.60;99.90;;;;;;4948666;28;20132;-69
2023/08/25 07:36:44;;;;;;;0.20;0.20;;;19.60;99.90;;;;;;4943224;28;20063;-69
2023/08/25 07:39:10;;;;;;;0.30;0.30;;;19.60;99.90;;;;;;4980480;28;20056;-69
2023/08/25 07:41:36;;;;;;;0.00;0.00;;;19.70;99.90;;;;;;4919881;28;20046;-69
2023/08/25 07:44:02;;;;;;;0.30;0.30;;;19.70;99.90;;;;;;4967222;28;20052;-69
2023/08/25 07:46:28;;;;;;;0.65;0.32;;;19.70;99.90;;;;;;4973545;28;20054;-70
2023/08/25 07:48:54;;;;;;;0.00;0.00;;;19.70;99.90;;;;;;4964075;28;20041;-69
2023/08/25 07:51:20;;;;;;;0.28;0.28;;;19.70;99.90;;;;;;4959019;28;20042;-69
2023/08/25 07:53:45;;;;;;;0.00;0.00;;;19.70;99.90;;;;;;4926738;28;20123;-69
2023/08/25 07:56:11;;;;;;;0.52;0.52;;;19.70;99.90;;;;;;4937666;28;20079;-69
2023/08/25 07:58:36;;;;;;;0.00;0.00;;;19.80;99.90;;;;;;4923674;28;20055;-69
2023/08/25 08:01:02;;;;;;;0.43;0.15;;;19.80;99.90;;;;;;4952838;28;20355;-69
2023/08/25 08:03:29;;;;;;;0.08;0.08;;;19.90;99.90;;;;;;4924309;28;20046;-69
2023/08/25 08:05:55;;;;;;;0.00;0.00;;;19.90;99.90;;;;;;4962721;28;20055;-69
2023/08/25 08:08:20;;;;;;;0.95;0.55;;;19.90;99.90;;;;;;4986226;28;20058;-69
2023/08/25 08:10:46;;;;;;;0.43;0.43;;;19.80;99.90;;;;;;4950069;28;20075;-69
2023/08/25 08:13:12;;;;;;;0.00;0.00;;;19.80;99.90;;;;;;4909329;28;20103;-69
2023/08/25 08:15:38;;;;;;;0.88;0.63;;;19.80;99.90;;;;;;4964624;28;20133;-70
2023/08/25 08:18:04;;;;;;;0.63;0.47;;;19.80;99.90;;;;;;4951202;28;20083;-69
2023/08/25 08:20:33;;;;;;;0.10;0.10;;;20.00;99.90;;;;;;4928808;28;20090;-69
2023/08/25 08:22:59;;;;;;;0.32;0.10;;;20.00;99.90;;;;;;4904426;28;20127;-69
2023/08/25 08:25:25;;;;;;;0.13;0.08;;;20.10;99.90;;;;;;4942023;28;20148;-70
2023/08/25 08:27:51;;;;;;;0.25;0.25;;;20.20;99.90;;;;;;4987691;28;20051;-69
2023/08/25 08:30:16;;;;;;;0.10;0.10;;;20.20;99.90;;;;;;4911363;28;20053;-70
2023/08/25 08:32:42;;;;;;;0.10;0.10;;;20.20;99.90;;;;;;4963143;28;20137;-69
2023/08/25 08:35:08;;;;;;;1.80;1.35;;;20.20;99.90;;;;;;4924813;28;20045;-70
2023/08/25 08:37:35;;;;;;;0.10;0.08;;;20.30;99.90;;;;;;4967979;28;20108;-70
2023/08/25 08:40:01;;;;;;;0.05;0.05;;;20.30;99.90;;;;;;4950036;28;20356;-69
2023/08/25 08:42:28;;;;;;;0.13;0.13;;;20.40;99.90;;;;;;4923270;28;20053;-70
2023/08/25 08:45:00;;;;;;;1.45;1.20;;;20.30;99.90;;;;;;4933891;28;20456;-70
2023/08/25 08:47:26;;;;;;;1.45;0.52;;;20.30;99.90;;;;;;4966039;28;20046;-70
2023/08/25 08:49:53;;;;;;;0.35;0.17;;;20.40;99.90;;;;;;4952483;28;20091;-69
2023/08/25 08:52:18;;;;;;;1.13;0.88;;;20.40;99.90;;;;;;4958353;28;20417;-70
2023/08/25 08:54:44;;;;;;;0.57;0.57;;;20.50;99.90;;;;;;4954758;28;20047;-69
2023/08/25 08:57:11;;;;;;;0.98;0.30;;;20.50;99.90;;;;;;4974896;28;20425;-69
2023/08/25 08:59:37;;;;;;;0.22;0.22;;;20.60;99.90;;;;;;4921101;28;20067;-70
2023/08/25 09:02:07;;;;;;;0.08;0.08;;;20.60;99.90;;;;;;4936275;28;20503;-69
2023/08/25 09:04:35;;;;;;;0.50;0.38;;;20.70;99.90;;;;;;4959769;28;20330;-69
2023/08/25 09:07:05;;;;;;;1.08;0.95;;;20.80;99.90;;;;;;4908314;28;20511;-70
2023/08/25 09:09:30;;;;;;;0.60;0.35;;;20.90;99.90;;;;;;4971216;28;20085;-70
2023/08/25 09:11:56;;;;;;;0.75;0.75;;;20.90;99.90;;;;;;4944950;28;20033;-70
2023/08/25 09:14:24;;;;;;;0.57;0.57;;;20.90;99.90;;;;;;4924019;28;20135;-70
2023/08/25 09:16:59;;;;;;;0.00;0.00;;;20.80;99.90;;;;;;4944400;28;20490;-69
2023/08/25 09:19:24;;;;;;;0.20;0.20;;;20.80;99.90;;;;;;4929697;28;20413;-70
2023/08/25 09:21:50;;;;;;;0.20;0.20;;;20.90;99.90;;;;;;4952451;28;20045;-70
2023/08/25 09:24:20;;;;;;;0.13;0.13;;;20.90;99.90;;;;;;4913250;28;20059;-70
2023/08/25 09:26:46;;;;;;;0.13;0.13;;;20.80;99.90;;;;;;4939156;28;20046;-69
2023/08/25 09:29:12;;;;;;;0.00;0.00;;;20.80;99.90;;;;;;4964119;28;20076;-70
2023/08/25 09:31:38;;;;;;;0.17;0.17;;;20.80;99.90;;;;;;4915920;28;20069;-69
2023/08/25 09:34:06;;;;;;;0.30;0.25;;;20.80;99.90;;;;;;4946884;28;20052;-70
2023/08/25 09:36:32;;;;;;;0.55;0.55;;;20.80;99.90;;;;;;4952336;28;20134;-69
2023/08/25 09:38:58;;;;;;;15.77;0.75;;;20.60;99.90;;;;;;4932752;28;20048;-70
2023/08/25 09:41:25;;;;;;;0.10;0.10;;;20.80;99.90;;;;;;4912570;28;20491;-69
2023/08/25 09:43:56;;;;;;;0.22;0.22;;;20.70;99.90;;;;;;4954671;28;20044;-70
2023/08/25 09:46:34;;;;;;;0.13;0.13;;;20.70;99.90;;;;;;4957118;28;20088;-70
2023/08/25 09:49:05;;;;;;;0.55;0.55;;;20.50;99.90;;;;;;4961103;28;20079;-69
2023/08/25 09:51:39;;;;;;;0.50;0.38;;;20.60;99.90;;;;;;4901410;28;20055;-70
2023/08/25 09:54:09;;;;;;;0.35;0.22;;;20.50;99.90;;;;;;4942412;28;20046;-69
2023/08/25 09:56:36;;;;;;;1.85;0.22;;;20.50;99.90;;;;;;4978644;28;20042;-70
2023/08/25 09:59:03;;;;;;;0.10;0.10;;;20.60;99.90;;;;;;4919881;28;20547;-70
2023/08/25 10:01:36;;;;;;;0.22;0.20;;;20.70;99.90;;;;;;4947708;28;20045;-70
2023/08/25 10:04:04;;;;;;;0.47;0.47;;;20.80;99.90;;;;;;4956147;28;20366;-70
2023/08/25 10:06:31;;;;;;;0.70;0.70;;;20.80;99.90;;;;;;4920466;28;20501;-70
2023/08/25 10:08:58;;;;;;;5.32;0.65;;;20.80;99.90;;;;;;4968738;28;20032;-70
2023/08/25 10:11:29;;;;;;;0.22;0.15;;;20.80;99.90;;;;;;4965326;28;20048;-70
2023/08/25 10:13:56;;;;;;;0.55;0.52;;;20.80;99.90;;;;;;4966666;28;20098;-70
2023/08/25 10:16:25;;;;;;;0.30;0.30;;;20.80;99.90;;;;;;4934962;28;20055;-70
2023/08/25 10:18:55;;;;;;;0.10;0.10;;;20.90;99.90;;;;;;4981487;28;20042;-70
2023/08/25 10:21:20;;;;;;;0.63;0.55;;;20.90;99.90;;;;;;4990669;28;20050;-70
2023/08/25 10:23:51;;;;;;;0.00;0.00;;;20.90;99.90;;;;;;4940147;28;20431;-70
2023/08/25 10:26:17;;;;;;;0.47;0.45;;;21.00;99.90;;;;;;4914231;28;20575;-70
2023/08/25 10:28:44;;;;;;;0.15;0.15;;;21.00;99.90;;;;;;4953775;28;20527;-70
2023/08/25 10:31:11;;;;;;;0.60;0.28;;;21.00;99.90;;;;;;4946972;28;20053;-70
2023/08/25 10:33:51;;;;;;;0.85;0.20;;;20.90;99.90;;;;;;4967165;28;20060;-70
2023/08/25 10:36:19;;;;;;;0.10;0.10;;;21.00;99.90;;;;;;4943076;28;20053;-70
2023/08/25 10:39:06;;;;;;;0.30;0.22;;;20.90;99.90;;;;;;4909181;28;20503;-70
2023/08/25 10:41:43;;;;;;;0.10;0.10;;;20.90;99.90;;;;;;4923452;28;20789;-70
2023/08/25 10:44:21;;;;;;;1.23;0.15;;;20.90;99.90;;;;;;4947371;28;20052;-70
2023/08/25 10:46:48;;;;;;;0.20;0.20;;;20.80;99.90;;;;;;4924013;28;20139;-69
2023/08/25 10:49:15;;;;;;;0.50;0.50;;;20.80;99.90;;;;;;4968250;28;20036;-70
2023/08/25 10:51:41;;;;;;;0.38;0.38;;;20.90;99.90;;;;;;4934769;28;20038;-69
2023/08/25 10:54:17;;;;;;;0.10;0.10;;;21.10;99.90;;;;;;4965495;28;20055;-69
2023/08/25 10:56:42;;;;;;;0.20;0.20;;;21.30;99.90;;;;;;4968282;28;20234;-70
2023/08/25 10:59:10;;;;;;;0.20;0.20;;;21.50;99.90;;;;;;4934869;28;20127;-69
2023/08/25 11:01:35;;;;;;;1.85;0.22;;;21.50;99.90;;;;;;4964761;28;20052;-70
2023/08/25 11:04:04;;;;;;;0.40;0.40;;;21.50;99.90;;;;;;4958071;28;20386;-70
2023/08/25 11:06:39;;;;;;;0.13;0.13;;;21.40;99.90;;;;;;4969144;28;20053;-70
2023/08/25 11:09:05;;;;;;;0.43;0.43;;;21.30;99.90;;;;;;4941185;28;20131;-70
2023/08/25 11:11:35;;;;;;;0.22;0.22;;;21.40;99.90;;;;;;4951773;28;20117;-70
2023/08/25 11:14:00;;;;;;;0.13;0.13;;;21.40;99.90;;;;;;4958489;28;20056;-70
2023/08/25 11:16:26;;;;;;;1.60;0.43;;;21.40;99.90;;;;;;4953982;28;20394;-70
2023/08/25 11:18:52;;;;;;;0.10;0.10;;;21.50;99.90;;;;;;4985621;28;20046;-70
2023/08/25 11:21:23;;;;;;;0.13;0.13;;;21.50;99.90;;;;;;4934617;28;20052;-69
2023/08/25 11:23:48;;;;;;;0.40;0.25;;;21.70;99.90;;;;;;4939681;28;20433;-69
2023/08/25 11:26:18;;;;;;;0.20;0.20;;;22.00;99.90;;;;;;4967570;28;20053;-70
2023/08/25 11:28:49;;;;;;;0.10;0.10;;;22.20;99.90;;;;;;4945943;28;20051;-70
2023/08/25 11:31:15;;;;;;;2.83;0.40;;;22.50;99.90;;;;;;4922741;28;20046;-70
2023/08/25 11:33:41;;;;;;;0.25;0.25;;;22.50;99.90;;;;;;4954567;28;20533;-70
2023/08/25 11:36:07;;;;;;;0.57;0.57;;;22.60;99.90;;;;;;4931363;28;20053;-70
2023/08/25 11:38:33;;;;;;;0.10;0.10;;;22.80;99.90;;;;;;4952605;28;20068;-70
2023/08/25 11:40:59;;;;;;;0.03;0.03;;;22.70;99.90;;;;;;4943248;28;20045;-69
2023/08/25 11:43:36;;;;;;;0.22;0.22;;;23.20;99.90;;;;;;4973066;28;20398;-70
2023/08/25 11:46:05;;;;;;;0.65;0.65;;;23.50;99.90;;;;;;4947678;28;20051;-70
2023/08/25 11:48:32;;;;;;;0.70;0.70;;;23.70;99.90;;;;;;4941977;28;20057;-69
2023/08/25 11:50:58;;;;;;;1.15;0.63;;;24.00;99.90;;;;;;4952925;28;20179;-70
2023/08/25 11:53:24;;;;;;;0.20;0.20;;;24.30;99.90;;;;;;4967793;28;20150;-70
2023/08/25 11:56:06;;;;;;;0.00;0.00;;;24.30;99.90;;;;;;4953155;28;20039;-70
2023/08/25 11:58:36;;;;;;;0.47;0.47;;;24.00;99.90;;;;;;4913910;28;20388;-70
2023/08/25 12:01:10;;;;;;;0.40;0.40;;;23.70;99.90;;;;;;4937209;28;20109;-70
2023/08/25 12:03:37;;;;;;;1.45;0.90;;;23.60;99.90;;;;;;4947456;28;20068;-70
2023/08/25 12:06:05;;;;;;;0.63;0.63;;;23.50;99.90;;;;;;4916472;28;20404;-70
2023/08/25 12:08:31;;;;;;;0.38;0.38;;;23.40;99.90;;;;;;4974137;28;20048;-70
2023/08/25 12:10:57;;;;;;;0.32;0.32;;;23.20;99.90;;;;;;4905244;28;20044;-70
2023/08/25 12:13:24;;;;;;;0.55;0.55;;;23.20;99.90;;;;;;4948770;28;20045;-70
2023/08/25 12:15:52;;;;;;;2.08;1.65;;;23.10;99.90;;;;;;4896821;28;20164;-70
2023/08/25 12:18:18;;;;;;;0.20;0.20;;;23.00;99.90;;;;;;4918985;28;20048;-70
2023/08/25 12:20:44;;;;;;;1.45;0.85;;;22.80;99.90;;;;;;4933108;28;20405;-70
2023/08/25 12:23:10;;;;;;;1.15;1.08;;;22.70;99.90;;;;;;4926994;28;20050;-70
2023/08/25 12:25:35;;;;;;;0.10;0.10;;;22.70;99.90;;;;;;4921217;28;20183;-70
2023/08/25 12:28:01;;;;;;;0.20;0.20;;;22.60;99.90;;;;;;4955269;28;20041;-70
2023/08/25 12:30:29;;;;;;;0.38;0.38;;;22.50;99.90;;;;;;4945397;28;20502;-70
2023/08/25 12:32:55;;;;;;;0.00;0.00;;;22.40;99.90;;;;;;4975690;28;20058;-70
2023/08/25 12:35:22;;;;;;;0.45;0.45;;;22.40;99.90;;;;;;4928883;28;20050;-70
2023/08/25 12:37:48;;;;;;;0.10;0.10;;;22.40;99.90;;;;;;4943345;28;20076;-70
2023/08/25 12:40:14;;;;;;;0.63;0.63;;;22.40;99.90;;;;;;4925960;28;20129;-70
2023/08/25 12:42:39;;;;;;;0.68;0.68;;;22.60;99.90;;;;;;4940526;28;20048;-70
2023/08/25 12:45:06;;;;;;;0.15;0.15;;;23.00;99.90;;;;;;4946788;28;20517;-70
2023/08/25 12:47:31;;;;;;;0.28;0.28;;;23.00;99.90;;;;;;4959452;28;20044;-71